sensor_id;sensor_type;location;lat;lon;timestamp;temperature;humidity
40638;DHT22;26336;44.696;10.622;2023-08-08T00:00:21;21.10;68.40
40638;DHT22;26336;44.696;10.622;2023-08-08T00:03:25;21.10;68.30
40638;DHT22;26336;44.696;10.622;2023-08-08T00:06:28;21.20;69.60
40638;DHT22;26336;44.696;10.622;2023-08-08T00:09:33;21.20;69.00
40638;DHT22;26336;44.696;10.622;2023-08-08T00:12:37;21.20;69.80
40638;DHT22;26336;44.696;10.622;2023-08-08T00:15:41;21.20;69.70
40638;DHT22;26336;44.696;10.622;2023-08-08T00:18:45;21.20;69.70
40638;DHT22;26336;44.696;10.622;2023-08-08T00:21:49;21.10;70.70
40638;DHT22;26336;44.696;10.622;2023-08-08T00:24:53;21.10;70.70
40638;DHT22;26336;44.696;10.622;2023-08-08T00:27:57;21.10;71.40
40638;DHT22;26336;44.696;10.622;2023-08-08T00:31:01;21.10;72.50
40638;DHT22;26336;44.696;10.622;2023-08-08T00:34:05;21.10;72.60
40638;DHT22;26336;44.696;10.622;2023-08-08T00:37:09;21.10;73.00
40638;DHT22;26336;44.696;10.622;2023-08-08T00:40:13;21.00;72.30
40638;DHT22;26336;44.696;10.622;2023-08-08T00:43:17;21.00;72.40
40638;DHT22;26336;44.696;10.622;2023-08-08T00:46:23;21.00;72.80
40638;DHT22;26336;44.696;10.622;2023-08-08T00:49:28;21.00;73.00
40638;DHT22;26336;44.696;10.622;2023-08-08T00:52:32;21.00;73.20
40638;DHT22;26336;44.696;10.622;2023-08-08T00:55:36;20.90;74.00
40638;DHT22;26336;44.696;10.622;2023-08-08T00:58:41;20.90;73.20
40638;DHT22;26336;44.696;10.622;2023-08-08T01:01:45;20.90;73.20
40638;DHT22;26336;44.696;10.622;2023-08-08T01:04:49;20.80;73.90
40638;DHT22;26336;44.696;10.622;2023-08-08T01:08:07;20.70;73.10
40638;DHT22;26336;44.696;10.622;2023-08-08T01:11:12;20.40;73.30
40638;DHT22;26336;44.696;10.622;2023-08-08T01:14:19;20.10;74.60
40638;DHT22;26336;44.696;10.622;2023-08-08T01:17:25;20.10;74.50
40638;DHT22;26336;44.696;10.622;2023-08-08T01:20:30;20.20;73.60
40638;DHT22;26336;44.696;10.622;2023-08-08T01:24:11;20.20;72.50
40638;DHT22;26336;44.696;10.622;2023-08-08T01:27:15;20.20;72.80
40638;DHT22;26336;44.696;10.622;2023-08-08T01:30:19;20.30;73.30
40638;DHT22;26336;44.696;10.622;2023-08-08T01:33:23;20.40;73.30
40638;DHT22;26336;44.696;10.622;2023-08-08T01:36:39;20.40;72.80
40638;DHT22;26336;44.696;10.622;2023-08-08T01:39:48;20.40;73.40
40638;DHT22;26336;44.696;10.622;2023-08-08T01:42:53;20.40;74.40
40638;DHT22;26336;44.696;10.622;2023-08-08T01:45:57;20.30;74.20
40638;DHT22;26336;44.696;10.622;2023-08-08T01:49:02;20.20;74.10
40638;DHT22;26336;44.696;10.622;2023-08-08T01:52:06;20.20;75.00
40638;DHT22;26336;44.696;10.622;2023-08-08T01:55:10;20.30;74.90
40638;DHT22;26336;44.696;10.622;2023-08-08T01:58:14;20.30;75.00
40638;DHT22;26336;44.696;10.622;2023-08-08T02:01:18;20.10;75.20
40638;DHT22;26336;44.696;10.622;2023-08-08T02:04:22;19.90;75.00
40638;DHT22;26336;44.696;10.622;2023-08-08T02:07:26;19.70;73.80
40638;DHT22;26336;44.696;10.622;2023-08-08T02:10:30;19.70;73.90
40638;DHT22;26336;44.696;10.622;2023-08-08T02:13:35;19.80;74.20
40638;DHT22;26336;44.696;10.622;2023-08-08T02:16:39;19.80;73.80
40638;DHT22;26336;44.696;10.622;2023-08-08T02:19:43;19.70;73.50
40638;DHT22;26336;44.696;10.622;2023-08-08T02:22:47;19.60;74.00
40638;DHT22;26336;44.696;10.622;2023-08-08T02:25:52;19.60;73.80
40638;DHT22;26336;44.696;10.622;2023-08-08T02:28:55;19.50;73.10
40638;DHT22;26336;44.696;10.622;2023-08-08T02:31:59;19.60;73.40
40638;DHT22;26336;44.696;10.622;2023-08-08T02:35:04;19.70;73.10
40638;DHT22;26336;44.696;10.622;2023-08-08T02:38:08;19.70;73.70
40638;DHT22;26336;44.696;10.622;2023-08-08T02:41:12;19.70;74.00
40638;DHT22;26336;44.696;10.622;2023-08-08T02:44:16;19.70;73.70
40638;DHT22;26336;44.696;10.622;2023-08-08T02:47:20;19.80;73.80
40638;DHT22;26336;44.696;10.622;2023-08-08T02:50:24;19.70;73.70
40638;DHT22;26336;44.696;10.622;2023-08-08T02:53:29;19.60;74.40
40638;DHT22;26336;44.696;10.622;2023-08-08T02:56:33;19.70;74.20
40638;DHT22;26336;44.696;10.622;2023-08-08T02:59:37;19.70;74.30
40638;DHT22;26336;44.696;10.622;2023-08-08T03:02:44;19.70;74.00
40638;DHT22;26336;44.696;10.622;2023-08-08T03:05:49;19.70;75.00
40638;DHT22;26336;44.696;10.622;2023-08-08T03:08:55;19.70;75.50
40638;DHT22;26336;44.696;10.622;2023-08-08T03:11:59;19.70;75.70
40638;DHT22;26336;44.696;10.622;2023-08-08T03:15:04;19.70;76.30
40638;DHT22;26336;44.696;10.622;2023-08-08T03:18:09;19.60;76.90
40638;DHT22;26336;44.696;10.622;2023-08-08T03:21:13;19.50;77.00
40638;DHT22;26336;44.696;10.622;2023-08-08T03:24:17;19.10;77.00
40638;DHT22;26336;44.696;10.622;2023-08-08T03:27:21;19.10;77.70
40638;DHT22;26336;44.696;10.622;2023-08-08T03:30:29;19.00;77.80
40638;DHT22;26336;44.696;10.622;2023-08-08T03:33:33;19.00;78.10
40638;DHT22;26336;44.696;10.622;2023-08-08T03:36:40;19.10;78.60
40638;DHT22;26336;44.696;10.622;2023-08-08T03:39:44;19.10;79.00
40638;DHT22;26336;44.696;10.622;2023-08-08T03:42:48;19.10;79.80
40638;DHT22;26336;44.696;10.622;2023-08-08T03:45:53;19.00;79.70
40638;DHT22;26336;44.696;10.622;2023-08-08T03:48:57;18.80;80.10
40638;DHT22;26336;44.696;10.622;2023-08-08T03:52:01;18.80;80.20
40638;DHT22;26336;44.696;10.622;2023-08-08T03:55:05;18.70;80.00
40638;DHT22;26336;44.696;10.622;2023-08-08T03:58:09;18.60;80.20
40638;DHT22;26336;44.696;10.622;2023-08-08T04:01:13;18.60;81.10
40638;DHT22;26336;44.696;10.622;2023-08-08T04:04:17;18.70;81.40
40638;DHT22;26336;44.696;10.622;2023-08-08T04:07:21;18.70;81.00
40638;DHT22;26336;44.696;10.622;2023-08-08T04:10:26;18.70;81.70
40638;DHT22;26336;44.696;10.622;2023-08-08T04:13:30;18.80;81.00
40638;DHT22;26336;44.696;10.622;2023-08-08T04:16:34;18.70;81.20
40638;DHT22;26336;44.696;10.622;2023-08-08T04:19:38;18.80;81.80
40638;DHT22;26336;44.696;10.622;2023-08-08T04:22:42;18.70;81.70
40638;DHT22;26336;44.696;10.622;2023-08-08T04:25:46;18.70;81.70
40638;DHT22;26336;44.696;10.622;2023-08-08T04:28:50;18.60;81.40
40638;DHT22;26336;44.696;10.622;2023-08-08T04:31:54;18.50;82.70
40638;DHT22;26336;44.696;10.622;2023-08-08T04:34:58;18.60;82.90
40638;DHT22;26336;44.696;10.622;2023-08-08T04:38:04;18.50;82.90
40638;DHT22;26336;44.696;10.622;2023-08-08T04:41:08;18.50;82.70
40638;DHT22;26336;44.696;10.622;2023-08-08T04:44:12;18.60;83.40
40638;DHT22;26336;44.696;10.622;2023-08-08T04:47:16;18.60;83.60
40638;DHT22;26336;44.696;10.622;2023-08-08T04:50:23;18.60;83.80
40638;DHT22;26336;44.696;10.622;2023-08-08T04:53:27;18.60;83.80
40638;DHT22;26336;44.696;10.622;2023-08-08T04:56:31;18.70;83.90
40638;DHT22;26336;44.696;10.622;2023-08-08T04:59:35;18.70;83.00
40638;DHT22;26336;44.696;10.622;2023-08-08T05:02:39;18.70;82.90
40638;DHT22;26336;44.696;10.622;2023-08-08T05:05:44;18.70;82.80
40638;DHT22;26336;44.696;10.622;2023-08-08T05:08:51;18.70;83.20
40638;DHT22;26336;44.696;10.622;2023-08-08T05:11:55;18.70;83.60
40638;DHT22;26336;44.696;10.622;2023-08-08T05:14:58;18.70;85.00
40638;DHT22;26336;44.696;10.622;2023-08-08T05:18:04;18.60;84.70
40638;DHT22;26336;44.696;10.622;2023-08-08T05:21:08;18.60;85.10
40638;DHT22;26336;44.696;10.622;2023-08-08T05:24:14;18.60;84.90
40638;DHT22;26336;44.696;10.622;2023-08-08T05:27:19;18.60;85.20
40638;DHT22;26336;44.696;10.622;2023-08-08T05:30:23;18.70;85.20
40638;DHT22;26336;44.696;10.622;2023-08-08T05:33:27;18.70;85.40
40638;DHT22;26336;44.696;10.622;2023-08-08T05:36:31;18.70;84.50
40638;DHT22;26336;44.696;10.622;2023-08-08T05:39:34;18.70;83.90
40638;DHT22;26336;44.696;10.622;2023-08-08T05:42:39;18.70;84.40
40638;DHT22;26336;44.696;10.622;2023-08-08T05:45:43;18.80;84.50
40638;DHT22;26336;44.696;10.622;2023-08-08T05:48:47;18.90;84.20
40638;DHT22;26336;44.696;10.622;2023-08-08T05:51:51;18.90;84.00
40638;DHT22;26336;44.696;10.622;2023-08-08T05:54:55;19.00;83.60
40638;DHT22;26336;44.696;10.622;2023-08-08T05:57:59;19.00;83.60
40638;DHT22;26336;44.696;10.622;2023-08-08T06:01:03;19.00;83.30
40638;DHT22;26336;44.696;10.622;2023-08-08T06:04:10;19.10;82.70
40638;DHT22;26336;44.696;10.622;2023-08-08T06:07:14;19.10;82.70
40638;DHT22;26336;44.696;10.622;2023-08-08T06:10:18;19.20;82.70
40638;DHT22;26336;44.696;10.622;2023-08-08T06:13:22;19.20;83.00
40638;DHT22;26336;44.696;10.622;2023-08-08T06:16:26;19.30;83.40
40638;DHT22;26336;44.696;10.622;2023-08-08T06:19:30;19.30;81.50
40638;DHT22;26336;44.696;10.622;2023-08-08T06:22:34;19.30;80.50
40638;DHT22;26336;44.696;10.622;2023-08-08T06:25:37;19.40;80.00
40638;DHT22;26336;44.696;10.622;2023-08-08T06:28:42;19.40;80.20
40638;DHT22;26336;44.696;10.622;2023-08-08T06:31:46;19.40;79.30
40638;DHT22;26336;44.696;10.622;2023-08-08T06:34:50;19.50;79.00
40638;DHT22;26336;44.696;10.622;2023-08-08T06:37:53;19.50;78.80
40638;DHT22;26336;44.696;10.622;2023-08-08T06:40:58;19.50;79.20
40638;DHT22;26336;44.696;10.622;2023-08-08T06:44:02;19.60;80.40
40638;DHT22;26336;44.696;10.622;2023-08-08T06:47:06;19.60;82.00
40638;DHT22;26336;44.696;10.622;2023-08-08T06:50:10;19.60;80.80
40638;DHT22;26336;44.696;10.622;2023-08-08T06:53:14;19.60;81.10
40638;DHT22;26336;44.696;10.622;2023-08-08T06:56:18;19.70;82.00
40638;DHT22;26336;44.696;10.622;2023-08-08T06:59:22;19.70;82.10
40638;DHT22;26336;44.696;10.622;2023-08-08T07:02:26;19.80;82.30
40638;DHT22;26336;44.696;10.622;2023-08-08T07:05:30;19.80;81.20
40638;DHT22;26336;44.696;10.622;2023-08-08T07:08:36;19.90;80.90
40638;DHT22;26336;44.696;10.622;2023-08-08T07:11:43;19.90;80.40
40638;DHT22;26336;44.696;10.622;2023-08-08T07:14:47;20.00;80.10
40638;DHT22;26336;44.696;10.622;2023-08-08T07:17:54;20.00;78.70
40638;DHT22;26336;44.696;10.622;2023-08-08T07:21:04;20.00;79.00
40638;DHT22;26336;44.696;10.622;2023-08-08T07:24:10;20.00;79.80
40638;DHT22;26336;44.696;10.622;2023-08-08T07:27:23;20.10;79.80
40638;DHT22;26336;44.696;10.622;2023-08-08T07:30:27;20.20;79.30
40638;DHT22;26336;44.696;10.622;2023-08-08T07:33:31;20.20;79.70
40638;DHT22;26336;44.696;10.622;2023-08-08T07:36:35;20.30;78.20
40638;DHT22;26336;44.696;10.622;2023-08-08T07:39:38;20.40;77.60
40638;DHT22;26336;44.696;10.622;2023-08-08T07:42:43;20.40;77.80
40638;DHT22;26336;44.696;10.622;2023-08-08T07:45:47;20.40;77.40
40638;DHT22;26336;44.696;10.622;2023-08-08T07:48:51;20.50;77.60
40638;DHT22;26336;44.696;10.622;2023-08-08T07:51:57;20.50;78.00
40638;DHT22;26336;44.696;10.622;2023-08-08T07:55:05;20.60;78.50
40638;DHT22;26336;44.696;10.622;2023-08-08T07:58:15;20.60;77.30
40638;DHT22;26336;44.696;10.622;2023-08-08T08:01:19;20.70;76.70
40638;DHT22;26336;44.696;10.622;2023-08-08T08:04:24;20.80;77.40
40638;DHT22;26336;44.696;10.622;2023-08-08T08:07:28;20.80;77.50
40638;DHT22;26336;44.696;10.622;2023-08-08T08:10:32;20.90;77.20
40638;DHT22;26336;44.696;10.622;2023-08-08T08:13:36;20.90;76.80
40638;DHT22;26336;44.696;10.622;2023-08-08T08:16:40;20.90;77.00
40638;DHT22;26336;44.696;10.622;2023-08-08T08:19:44;21.00;77.70
40638;DHT22;26336;44.696;10.622;2023-08-08T08:22:48;21.00;78.40
40638;DHT22;26336;44.696;10.622;2023-08-08T08:25:52;21.10;79.40
40638;DHT22;26336;44.696;10.622;2023-08-08T08:28:57;21.10;80.00
40638;DHT22;26336;44.696;10.622;2023-08-08T08:32:01;21.20;79.40
40638;DHT22;26336;44.696;10.622;2023-08-08T08:35:09;21.20;80.30
40638;DHT22;26336;44.696;10.622;2023-08-08T08:38:16;21.30;79.60
40638;DHT22;26336;44.696;10.622;2023-08-08T08:41:25;21.40;79.20
40638;DHT22;26336;44.696;10.622;2023-08-08T08:44:34;21.50;79.00
40638;DHT22;26336;44.696;10.622;2023-08-08T08:47:41;21.50;79.00
40638;DHT22;26336;44.696;10.622;2023-08-08T08:50:48;21.60;79.20
40638;DHT22;26336;44.696;10.622;2023-08-08T08:53:52;21.70;79.60
40638;DHT22;26336;44.696;10.622;2023-08-08T08:56:57;21.70;80.00
40638;DHT22;26336;44.696;10.622;2023-08-08T09:00:04;21.80;79.20
40638;DHT22;26336;44.696;10.622;2023-08-08T09:03:10;21.80;78.80
40638;DHT22;26336;44.696;10.622;2023-08-08T09:06:17;22.00;78.70
40638;DHT22;26336;44.696;10.622;2023-08-08T09:09:23;22.10;78.70
40638;DHT22;26336;44.696;10.622;2023-08-08T09:12:27;22.20;78.00
40638;DHT22;26336;44.696;10.622;2023-08-08T09:15:32;22.30;77.90
40638;DHT22;26336;44.696;10.622;2023-08-08T09:18:36;22.30;77.10
40638;DHT22;26336;44.696;10.622;2023-08-08T09:21:42;22.40;77.10
40638;DHT22;26336;44.696;10.622;2023-08-08T09:24:46;22.50;76.00
40638;DHT22;26336;44.696;10.622;2023-08-08T09:27:51;22.60;76.90
40638;DHT22;26336;44.696;10.622;2023-08-08T09:30:58;22.70;77.30
40638;DHT22;26336;44.696;10.622;2023-08-08T09:34:04;22.80;76.30
40638;DHT22;26336;44.696;10.622;2023-08-08T09:37:09;22.90;72.50
40638;DHT22;26336;44.696;10.622;2023-08-08T09:40:17;23.00;72.10
40638;DHT22;26336;44.696;10.622;2023-08-08T09:43:21;23.10;72.90
40638;DHT22;26336;44.696;10.622;2023-08-08T09:46:25;23.20;73.80
40638;DHT22;26336;44.696;10.622;2023-08-08T09:49:30;23.30;73.20
40638;DHT22;26336;44.696;10.622;2023-08-08T09:52:38;23.40;72.70
40638;DHT22;26336;44.696;10.622;2023-08-08T09:55:44;23.50;71.70
40638;DHT22;26336;44.696;10.622;2023-08-08T09:58:49;23.50;72.10
40638;DHT22;26336;44.696;10.622;2023-08-08T10:01:53;23.60;71.90
40638;DHT22;26336;44.696;10.622;2023-08-08T10:04:58;23.70;69.90
40638;DHT22;26336;44.696;10.622;2023-08-08T10:08:02;23.90;70.20
40638;DHT22;26336;44.696;10.622;2023-08-08T10:11:07;23.90;71.70
40638;DHT22;26336;44.696;10.622;2023-08-08T10:14:12;24.00;70.30
40638;DHT22;26336;44.696;10.622;2023-08-08T10:17:19;24.10;70.90
40638;DHT22;26336;44.696;10.622;2023-08-08T10:20:26;24.10;71.20
40638;DHT22;26336;44.696;10.622;2023-08-08T10:23:36;24.20;72.00
40638;DHT22;26336;44.696;10.622;2023-08-08T10:26:57;24.30;71.80
40638;DHT22;26336;44.696;10.622;2023-08-08T10:30:08;24.40;71.40
40638;DHT22;26336;44.696;10.622;2023-08-08T10:33:22;24.40;72.50
40638;DHT22;26336;44.696;10.622;2023-08-08T10:36:51;24.50;70.80
40638;DHT22;26336;44.696;10.622;2023-08-08T10:40:00;24.60;69.50
40638;DHT22;26336;44.696;10.622;2023-08-08T10:43:12;24.60;69.70
40638;DHT22;26336;44.696;10.622;2023-08-08T10:49:30;24.90;68.40
40638;DHT22;26336;44.696;10.622;2023-08-08T10:52:54;24.90;68.70
40638;DHT22;26336;44.696;10.622;2023-08-08T10:56:01;25.10;68.60
40638;DHT22;26336;44.696;10.622;2023-08-08T10:59:21;25.10;68.60
40638;DHT22;26336;44.696;10.622;2023-08-08T11:02:28;25.20;67.40
40638;DHT22;26336;44.696;10.622;2023-08-08T11:05:37;25.20;66.70
40638;DHT22;26336;44.696;10.622;2023-08-08T11:08:41;25.20;66.90
40638;DHT22;26336;44.696;10.622;2023-08-08T11:11:45;25.20;66.30
40638;DHT22;26336;44.696;10.622;2023-08-08T11:14:50;25.30;64.90
40638;DHT22;26336;44.696;10.622;2023-08-08T11:17:55;25.20;64.70
40638;DHT22;26336;44.696;10.622;2023-08-08T11:20:59;25.20;65.80
40638;DHT22;26336;44.696;10.622;2023-08-08T11:24:05;25.20;66.60
40638;DHT22;26336;44.696;10.622;2023-08-08T11:27:09;25.20;68.30
40638;DHT22;26336;44.696;10.622;2023-08-08T11:30:13;25.40;68.10
40638;DHT22;26336;44.696;10.622;2023-08-08T11:33:21;25.40;67.70
40638;DHT22;26336;44.696;10.622;2023-08-08T11:36:29;25.40;69.10
40638;DHT22;26336;44.696;10.622;2023-08-08T11:39:33;25.50;68.80
40638;DHT22;26336;44.696;10.622;2023-08-08T11:42:38;25.70;69.20
40638;DHT22;26336;44.696;10.622;2023-08-08T11:45:43;25.70;69.40
40638;DHT22;26336;44.696;10.622;2023-08-08T11:48:47;25.80;68.60
40638;DHT22;26336;44.696;10.622;2023-08-08T11:51:54;25.90;68.70
40638;DHT22;26336;44.696;10.622;2023-08-08T11:55:03;26.00;68.10
40638;DHT22;26336;44.696;10.622;2023-08-08T11:58:13;26.00;67.00
40638;DHT22;26336;44.696;10.622;2023-08-08T12:01:26;26.00;66.30
40638;DHT22;26336;44.696;10.622;2023-08-08T12:04:30;26.00;68.20
40638;DHT22;26336;44.696;10.622;2023-08-08T12:07:34;26.10;65.80
40638;DHT22;26336;44.696;10.622;2023-08-08T12:10:38;26.10;66.40
40638;DHT22;26336;44.696;10.622;2023-08-08T12:13:43;26.10;65.40
40638;DHT22;26336;44.696;10.622;2023-08-08T12:16:48;26.10;66.20
40638;DHT22;26336;44.696;10.622;2023-08-08T12:19:55;26.10;65.00
40638;DHT22;26336;44.696;10.622;2023-08-08T12:23:02;26.10;65.00
40638;DHT22;26336;44.696;10.622;2023-08-08T12:26:07;26.10;64.90
40638;DHT22;26336;44.696;10.622;2023-08-08T12:29:13;26.10;65.80
40638;DHT22;26336;44.696;10.622;2023-08-08T12:32:27;26.30;63.90
40638;DHT22;26336;44.696;10.622;2023-08-08T12:35:58;26.20;64.70
40638;DHT22;26336;44.696;10.622;2023-08-08T12:39:02;26.30;66.00
40638;DHT22;26336;44.696;10.622;2023-08-08T12:42:07;26.40;65.70
40638;DHT22;26336;44.696;10.622;2023-08-08T12:45:11;26.40;64.40
40638;DHT22;26336;44.696;10.622;2023-08-08T12:48:15;26.50;64.50
40638;DHT22;26336;44.696;10.622;2023-08-08T12:51:19;26.40;65.10
40638;DHT22;26336;44.696;10.622;2023-08-08T12:54:23;26.50;64.80
40638;DHT22;26336;44.696;10.622;2023-08-08T12:57:27;26.50;62.90
40638;DHT22;26336;44.696;10.622;2023-08-08T13:00:31;26.60;63.30
40638;DHT22;26336;44.696;10.622;2023-08-08T13:03:36;26.60;63.80
40638;DHT22;26336;44.696;10.622;2023-08-08T13:06:40;26.60;63.50
40638;DHT22;26336;44.696;10.622;2023-08-08T13:09:44;26.50;63.90
40638;DHT22;26336;44.696;10.622;2023-08-08T13:12:48;26.60;62.10
40638;DHT22;26336;44.696;10.622;2023-08-08T13:15:55;26.70;63.00
40638;DHT22;26336;44.696;10.622;2023-08-08T13:19:00;26.60;64.30
40638;DHT22;26336;44.696;10.622;2023-08-08T13:22:04;26.60;64.70
40638;DHT22;26336;44.696;10.622;2023-08-08T13:25:08;26.70;64.00
40638;DHT22;26336;44.696;10.622;2023-08-08T13:28:22;26.80;62.50
40638;DHT22;26336;44.696;10.622;2023-08-08T13:31:25;26.80;63.80
40638;DHT22;26336;44.696;10.622;2023-08-08T13:34:29;26.80;63.90
40638;DHT22;26336;44.696;10.622;2023-08-08T13:37:36;26.80;64.20
40638;DHT22;26336;44.696;10.622;2023-08-08T13:40:41;26.90;63.40
40638;DHT22;26336;44.696;10.622;2023-08-08T13:43:45;26.80;63.70
40638;DHT22;26336;44.696;10.622;2023-08-08T13:46:53;26.90;63.20
40638;DHT22;26336;44.696;10.622;2023-08-08T13:50:17;26.80;64.20
40638;DHT22;26336;44.696;10.622;2023-08-08T13:53:21;26.80;63.90
40638;DHT22;26336;44.696;10.622;2023-08-08T13:56:27;26.80;64.20
40638;DHT22;26336;44.696;10.622;2023-08-08T13:59:31;26.80;64.40
40638;DHT22;26336;44.696;10.622;2023-08-08T14:02:36;26.80;63.50
40638;DHT22;26336;44.696;10.622;2023-08-08T14:05:42;26.70;64.70
40638;DHT22;26336;44.696;10.622;2023-08-08T14:08:46;26.70;64.90
40638;DHT22;26336;44.696;10.622;2023-08-08T14:11:52;26.80;64.90
40638;DHT22;26336;44.696;10.622;2023-08-08T14:14:56;26.80;65.20
40638;DHT22;26336;44.696;10.622;2023-08-08T14:18:00;26.90;64.80
40638;DHT22;26336;44.696;10.622;2023-08-08T14:21:04;26.80;65.20
40638;DHT22;26336;44.696;10.622;2023-08-08T14:24:09;27.00;64.00
40638;DHT22;26336;44.696;10.622;2023-08-08T14:27:13;26.90;64.20
40638;DHT22;26336;44.696;10.622;2023-08-08T14:30:18;26.80;64.40
40638;DHT22;26336;44.696;10.622;2023-08-08T14:33:21;26.70;65.20
40638;DHT22;26336;44.696;10.622;2023-08-08T14:36:26;26.70;66.30
40638;DHT22;26336;44.696;10.622;2023-08-08T14:39:30;26.80;64.30
40638;DHT22;26336;44.696;10.622;2023-08-08T14:42:34;26.90;64.70
40638;DHT22;26336;44.696;10.622;2023-08-08T14:45:41;26.90;64.80
40638;DHT22;26336;44.696;10.622;2023-08-08T14:48:45;26.80;64.40
40638;DHT22;26336;44.696;10.622;2023-08-08T14:51:49;26.80;64.20
40638;DHT22;26336;44.696;10.622;2023-08-08T14:54:52;26.90;63.90
40638;DHT22;26336;44.696;10.622;2023-08-08T14:57:57;26.80;63.70
40638;DHT22;26336;44.696;10.622;2023-08-08T15:01:01;26.80;64.50
40638;DHT22;26336;44.696;10.622;2023-08-08T15:04:06;26.80;64.40
40638;DHT22;26336;44.696;10.622;2023-08-08T15:07:10;26.90;64.40
40638;DHT22;26336;44.696;10.622;2023-08-08T15:10:14;26.90;64.50
40638;DHT22;26336;44.696;10.622;2023-08-08T15:13:18;27.00;64.10
40638;DHT22;26336;44.696;10.622;2023-08-08T15:16:22;27.00;63.80
40638;DHT22;26336;44.696;10.622;2023-08-08T15:19:27;27.00;62.60
40638;DHT22;26336;44.696;10.622;2023-08-08T15:22:31;27.00;62.90
40638;DHT22;26336;44.696;10.622;2023-08-08T15:25:35;27.00;63.00
40638;DHT22;26336;44.696;10.622;2023-08-08T15:28:40;27.00;63.00
40638;DHT22;26336;44.696;10.622;2023-08-08T15:31:44;27.00;62.40
40638;DHT22;26336;44.696;10.622;2023-08-08T15:34:48;26.90;62.70
40638;DHT22;26336;44.696;10.622;2023-08-08T15:37:52;26.90;64.10
40638;DHT22;26336;44.696;10.622;2023-08-08T15:40:56;26.80;62.90
40638;DHT22;26336;44.696;10.622;2023-08-08T15:44:00;26.90;62.70
40638;DHT22;26336;44.696;10.622;2023-08-08T15:47:04;27.00;62.90
40638;DHT22;26336;44.696;10.622;2023-08-08T15:50:10;27.00;63.20
40638;DHT22;26336;44.696;10.622;2023-08-08T15:53:14;27.00;63.90
40638;DHT22;26336;44.696;10.622;2023-08-08T15:56:18;26.90;64.20
40638;DHT22;26336;44.696;10.622;2023-08-08T15:59:22;26.80;62.90
40638;DHT22;26336;44.696;10.622;2023-08-08T16:02:26;26.80;63.90
40638;DHT22;26336;44.696;10.622;2023-08-08T16:05:30;26.90;64.30
40638;DHT22;26336;44.696;10.622;2023-08-08T16:08:35;26.80;64.20
40638;DHT22;26336;44.696;10.622;2023-08-08T16:11:39;26.80;64.60
40638;DHT22;26336;44.696;10.622;2023-08-08T16:14:43;27.00;63.90
40638;DHT22;26336;44.696;10.622;2023-08-08T16:17:47;26.90;63.90
40638;DHT22;26336;44.696;10.622;2023-08-08T16:20:51;27.00;63.90
40638;DHT22;26336;44.696;10.622;2023-08-08T16:23:55;27.00;63.80
40638;DHT22;26336;44.696;10.622;2023-08-08T16:26:58;26.90;63.50
40638;DHT22;26336;44.696;10.622;2023-08-08T16:30:03;26.90;64.00
40638;DHT22;26336;44.696;10.622;2023-08-08T16:33:08;26.90;64.60
40638;DHT22;26336;44.696;10.622;2023-08-08T16:36:12;27.00;64.90
40638;DHT22;26336;44.696;10.622;2023-08-08T16:39:16;27.00;65.30
40638;DHT22;26336;44.696;10.622;2023-08-08T16:42:20;27.00;65.00
40638;DHT22;26336;44.696;10.622;2023-08-08T16:45:24;27.00;65.00
40638;DHT22;26336;44.696;10.622;2023-08-08T16:48:28;27.00;65.20
40638;DHT22;26336;44.696;10.622;2023-08-08T16:51:34;27.00;64.90
40638;DHT22;26336;44.696;10.622;2023-08-08T16:54:38;26.90;65.40
40638;DHT22;26336;44.696;10.622;2023-08-08T16:57:43;26.90;65.60
40638;DHT22;26336;44.696;10.622;2023-08-08T17:00:47;26.90;65.20
40638;DHT22;26336;44.696;10.622;2023-08-08T17:03:51;26.80;65.30
40638;DHT22;26336;44.696;10.622;2023-08-08T17:06:55;26.80;66.00
40638;DHT22;26336;44.696;10.622;2023-08-08T17:09:59;26.70;65.10
40638;DHT22;26336;44.696;10.622;2023-08-08T17:13:03;26.80;66.00
40638;DHT22;26336;44.696;10.622;2023-08-08T17:16:07;26.70;66.20
40638;DHT22;26336;44.696;10.622;2023-08-08T17:19:11;26.70;66.70
40638;DHT22;26336;44.696;10.622;2023-08-08T17:22:16;26.70;66.30
40638;DHT22;26336;44.696;10.622;2023-08-08T17:25:19;26.60;65.80
40638;DHT22;26336;44.696;10.622;2023-08-08T17:28:23;26.60;65.00
40638;DHT22;26336;44.696;10.622;2023-08-08T17:31:27;26.60;65.80
40638;DHT22;26336;44.696;10.622;2023-08-08T17:34:31;26.50;66.40
40638;DHT22;26336;44.696;10.622;2023-08-08T17:37:35;26.40;67.00
40638;DHT22;26336;44.696;10.622;2023-08-08T17:40:39;26.40;66.40
40638;DHT22;26336;44.696;10.622;2023-08-08T17:43:43;26.40;66.70
40638;DHT22;26336;44.696;10.622;2023-08-08T17:46:47;26.40;66.40
40638;DHT22;26336;44.696;10.622;2023-08-08T17:49:51;26.40;67.00
40638;DHT22;26336;44.696;10.622;2023-08-08T17:52:56;26.40;66.80
40638;DHT22;26336;44.696;10.622;2023-08-08T17:56:00;26.30;67.20
40638;DHT22;26336;44.696;10.622;2023-08-08T17:59:04;26.30;67.20
40638;DHT22;26336;44.696;10.622;2023-08-08T18:02:09;26.20;67.10
40638;DHT22;26336;44.696;10.622;2023-08-08T18:05:14;26.20;67.50
40638;DHT22;26336;44.696;10.622;2023-08-08T18:08:18;26.10;67.90
40638;DHT22;26336;44.696;10.622;2023-08-08T18:11:22;26.10;68.70
40638;DHT22;26336;44.696;10.622;2023-08-08T18:14:26;26.00;68.40
40638;DHT22;26336;44.696;10.622;2023-08-08T18:17:30;26.00;69.00
40638;DHT22;26336;44.696;10.622;2023-08-08T18:20:33;25.90;69.20
40638;DHT22;26336;44.696;10.622;2023-08-08T18:23:37;25.90;70.10
40638;DHT22;26336;44.696;10.622;2023-08-08T18:26:41;25.80;70.50
40638;DHT22;26336;44.696;10.622;2023-08-08T18:29:45;25.80;70.60
40638;DHT22;26336;44.696;10.622;2023-08-08T18:32:49;25.70;70.90
40638;DHT22;26336;44.696;10.622;2023-08-08T18:35:53;25.70;71.30
40638;DHT22;26336;44.696;10.622;2023-08-08T18:38:57;25.70;71.60
40638;DHT22;26336;44.696;10.622;2023-08-08T18:42:01;25.60;72.00
40638;DHT22;26336;44.696;10.622;2023-08-08T18:45:06;25.50;72.20
40638;DHT22;26336;44.696;10.622;2023-08-08T18:48:10;25.50;72.70
40638;DHT22;26336;44.696;10.622;2023-08-08T18:51:14;25.50;72.50
40638;DHT22;26336;44.696;10.622;2023-08-08T18:54:19;25.50;72.60
40638;DHT22;26336;44.696;10.622;2023-08-08T18:57:23;25.40;73.10
40638;DHT22;26336;44.696;10.622;2023-08-08T19:00:27;25.40;72.90
40638;DHT22;26336;44.696;10.622;2023-08-08T19:03:31;25.30;73.30
40638;DHT22;26336;44.696;10.622;2023-08-08T19:06:35;25.30;72.90
40638;DHT22;26336;44.696;10.622;2023-08-08T19:09:39;25.20;72.80
40638;DHT22;26336;44.696;10.622;2023-08-08T19:12:43;25.20;73.40